sensor_id;sensor_type;location;lat;lon;timestamp;temperature;humidity
8684;DHT22;4379;59.744;18.206;2024-02-23T00:02:19;3.10;99.90
8684;DHT22;4379;59.744;18.206;2024-02-23T00:04:46;3.10;99.90
8684;DHT22;4379;59.744;18.206;2024-02-23T00:07:14;3.00;99.90
8684;DHT22;4379;59.744;18.206;2024-02-23T00:09:41;3.10;99.90
8684;DHT22;4379;59.744;18.206;2024-02-23T00:12:08;3.10;99.90
8684;DHT22;4379;59.744;18.206;2024-02-23T00:14:35;3.10;99.90
8684;DHT22;4379;59.744;18.206;2024-02-23T00:17:03;3.10;99.90
8684;DHT22;4379;59.744;18.206;2024-02-23T00:19:31;3.10;99.90
8684;DHT22;4379;59.744;18.206;2024-02-23T00:21:58;3.10;99.90
8684;DHT22;4379;59.744;18.206;2024-02-23T00:24:26;3.10;99.90
8684;DHT22;4379;59.744;18.206;2024-02-23T00:26:54;3.10;99.90
8684;DHT22;4379;59.744;18.206;2024-02-23T00:29:21;3.10;99.90
8684;DHT22;4379;59.744;18.206;2024-02-23T00:31:49;3.00;99.90
8684;DHT22;4379;59.744;18.206;2024-02-23T00:34:16;3.00;99.90
8684;DHT22;4379;59.744;18.206;2024-02-23T00:36:44;3.00;99.90
8684;DHT22;4379;59.744;18.206;2024-02-23T00:39:15;3.00;99.90
8684;DHT22;4379;59.744;18.206;2024-02-23T00:41:42;2.90;99.90
8684;DHT22;4379;59.744;18.206;2024-02-23T00:44:09;2.90;99.90
8684;DHT22;4379;59.744;18.206;2024-02-23T00:46:36;2.90;99.90
8684;DHT22;4379;59.744;18.206;2024-02-23T00:49:03;3.00;99.90
8684;DHT22;4379;59.744;18.206;2024-02-23T00:51:30;3.00;99.90
8684;DHT22;4379;59.744;18.206;2024-02-23T00:53:57;2.90;99.90
8684;DHT22;4379;59.744;18.206;2024-02-23T00:56:24;3.00;99.90
8684;DHT22;4379;59.744;18.206;2024-02-23T00:59:01;2.90;99.90
8684;DHT22;4379;59.744;18.206;2024-02-23T01:01:29;2.90;99.90
8684;DHT22;4379;59.744;18.206;2024-02-23T01:03:56;3.00;99.90
8684;DHT22;4379;59.744;18.206;2024-02-23T01:06:24;3.00;99.90
8684;DHT22;4379;59.744;18.206;2024-02-23T01:08:51;2.90;99.90
8684;DHT22;4379;59.744;18.206;2024-02-23T01:11:19;3.00;99.90
8684;DHT22;4379;59.744;18.206;2024-02-23T01:13:46;3.00;99.90
8684;DHT22;4379;59.744;18.206;2024-02-23T01:16:13;3.00;99.90
8684;DHT22;4379;59.744;18.206;2024-02-23T01:18:40;3.00;99.90
8684;DHT22;4379;59.744;18.206;2024-02-23T01:21:08;3.00;99.90
8684;DHT22;4379;59.744;18.206;2024-02-23T01:23:35;3.00;99.90
8684;DHT22;4379;59.744;18.206;2024-02-23T01:26:02;3.00;99.90
8684;DHT22;4379;59.744;18.206;2024-02-23T01:28:29;3.00;99.90
8684;DHT22;4379;59.744;18.206;2024-02-23T01:30:57;3.00;99.90
8684;DHT22;4379;59.744;18.206;2024-02-23T01:33:24;3.00;99.90
8684;DHT22;4379;59.744;18.206;2024-02-23T01:35:51;3.00;99.90
8684;DHT22;4379;59.744;18.206;2024-02-23T01:38:18;3.10;99.90
8684;DHT22;4379;59.744;18.206;2024-02-23T01:40:49;3.10;99.90
8684;DHT22;4379;59.744;18.206;2024-02-23T01:43:16;3.00;99.90
8684;DHT22;4379;59.744;18.206;2024-02-23T01:45:43;3.00;99.90
8684;DHT22;4379;59.744;18.206;2024-02-23T01:48:10;3.00;99.90
8684;DHT22;4379;59.744;18.206;2024-02-23T01:50:38;3.00;99.90
8684;DHT22;4379;59.744;18.206;2024-02-23T01:53:05;3.00;99.90
8684;DHT22;4379;59.744;18.206;2024-02-23T01:55:33;3.00;99.90
8684;DHT22;4379;59.744;18.206;2024-02-23T01:58:04;3.00;99.90
8684;DHT22;4379;59.744;18.206;2024-02-23T02:00:35;3.00;99.90
8684;DHT22;4379;59.744;18.206;2024-02-23T02:03:03;2.90;99.90
8684;DHT22;4379;59.744;18.206;2024-02-23T02:05:30;3.00;99.90
8684;DHT22;4379;59.744;18.206;2024-02-23T02:07:57;2.90;99.90
8684;DHT22;4379;59.744;18.206;2024-02-23T02:10:28;3.00;99.90
8684;DHT22;4379;59.744;18.206;2024-02-23T02:12:55;3.00;99.90
8684;DHT22;4379;59.744;18.206;2024-02-23T02:15:22;3.00;99.90
8684;DHT22;4379;59.744;18.206;2024-02-23T02:17:49;3.00;99.90
8684;DHT22;4379;59.744;18.206;2024-02-23T02:20:18;3.00;99.90
8684;DHT22;4379;59.744;18.206;2024-02-23T02:22:50;3.00;99.90
8684;DHT22;4379;59.744;18.206;2024-02-23T02:25:17;3.00;99.90
8684;DHT22;4379;59.744;18.206;2024-02-23T02:27:44;3.00;99.90
8684;DHT22;4379;59.744;18.206;2024-02-23T02:30:12;3.00;99.90
8684;DHT22;4379;59.744;18.206;2024-02-23T02:32:40;3.00;99.90
8684;DHT22;4379;59.744;18.206;2024-02-23T02:35:10;3.00;99.90
8684;DHT22;4379;59.744;18.206;2024-02-23T02:37:37;3.00;99.90
8684;DHT22;4379;59.744;18.206;2024-02-23T02:40:04;3.00;99.90
8684;DHT22;4379;59.744;18.206;2024-02-23T02:42:33;3.00;99.90
8684;DHT22;4379;59.744;18.206;2024-02-23T02:45:00;3.00;99.90
8684;DHT22;4379;59.744;18.206;2024-02-23T02:47:27;3.00;99.90
8684;DHT22;4379;59.744;18.206;2024-02-23T02:49:56;3.00;99.90
8684;DHT22;4379;59.744;18.206;2024-02-23T02:52:23;3.00;99.90
8684;DHT22;4379;59.744;18.206;2024-02-23T02:54:51;3.00;99.90
8684;DHT22;4379;59.744;18.206;2024-02-23T02:57:18;3.00;99.90
8684;DHT22;4379;59.744;18.206;2024-02-23T02:59:45;3.10;99.90
8684;DHT22;4379;59.744;18.206;2024-02-23T03:02:13;3.10;99.90
8684;DHT22;4379;59.744;18.206;2024-02-23T03:04:49;3.10;99.90
8684;DHT22;4379;59.744;18.206;2024-02-23T03:07:17;3.10;99.90
8684;DHT22;4379;59.744;18.206;2024-02-23T03:09:44;3.10;99.90
8684;DHT22;4379;59.744;18.206;2024-02-23T03:12:11;3.10;99.90
8684;DHT22;4379;59.744;18.206;2024-02-23T03:14:38;3.10;99.90
8684;DHT22;4379;59.744;18.206;2024-02-23T03:17:08;3.10;99.90
8684;DHT22;4379;59.744;18.206;2024-02-23T03:19:37;3.10;99.90
8684;DHT22;4379;59.744;18.206;2024-02-23T03:22:05;3.10;99.90
8684;DHT22;4379;59.744;18.206;2024-02-23T03:24:32;3.20;99.90
8684;DHT22;4379;59.744;18.206;2024-02-23T03:26:59;3.20;99.90
8684;DHT22;4379;59.744;18.206;2024-02-23T03:29:26;3.10;99.90
8684;DHT22;4379;59.744;18.206;2024-02-23T03:31:57;3.10;99.90
8684;DHT22;4379;59.744;18.206;2024-02-23T03:34:24;3.10;99.90
8684;DHT22;4379;59.744;18.206;2024-02-23T03:36:51;3.10;99.90
8684;DHT22;4379;59.744;18.206;2024-02-23T03:39:19;3.10;99.90
8684;DHT22;4379;59.744;18.206;2024-02-23T03:41:45;3.20;99.90
8684;DHT22;4379;59.744;18.206;2024-02-23T03:44:13;3.10;99.90
8684;DHT22;4379;59.744;18.206;2024-02-23T03:46:40;3.20;99.90
8684;DHT22;4379;59.744;18.206;2024-02-23T03:49:07;3.20;99.90
8684;DHT22;4379;59.744;18.206;2024-02-23T03:51:34;3.10;99.90
8684;DHT22;4379;59.744;18.206;2024-02-23T03:54:03;3.20;99.90
8684;DHT22;4379;59.744;18.206;2024-02-23T03:56:37;3.20;99.90
8684;DHT22;4379;59.744;18.206;2024-02-23T03:59:04;3.20;99.90
8684;DHT22;4379;59.744;18.206;2024-02-23T04:01:31;3.20;99.90
8684;DHT22;4379;59.744;18.206;2024-02-23T04:03:58;3.20;99.90
8684;DHT22;4379;59.744;18.206;2024-02-23T04:06:26;3.20;99.90
8684;DHT22;4379;59.744;18.206;2024-02-23T04:08:53;3.20;99.90
8684;DHT22;4379;59.744;18.206;2024-02-23T04:11:20;3.30;99.90
8684;DHT22;4379;59.744;18.206;2024-02-23T04:13:47;3.30;99.90
8684;DHT22;4379;59.744;18.206;2024-02-23T04:16:22;3.30;99.90
8684;DHT22;4379;59.744;18.206;2024-02-23T04:18:49;3.30;99.90
8684;DHT22;4379;59.744;18.206;2024-02-23T04:21:16;3.40;99.90
8684;DHT22;4379;59.744;18.206;2024-02-23T04:23:43;3.40;99.90
8684;DHT22;4379;59.744;18.206;2024-02-23T04:26:10;3.40;99.90
8684;DHT22;4379;59.744;18.206;2024-02-23T04:28:41;3.40;99.90
8684;DHT22;4379;59.744;18.206;2024-02-23T04:31:09;3.50;99.90
8684;DHT22;4379;59.744;18.206;2024-02-23T04:33:37;3.40;99.90
8684;DHT22;4379;59.744;18.206;2024-02-23T04:36:05;3.40;99.90
8684;DHT22;4379;59.744;18.206;2024-02-23T04:38:33;3.40;99.90
8684;DHT22;4379;59.744;18.206;2024-02-23T04:41:04;3.40;99.90
8684;DHT22;4379;59.744;18.206;2024-02-23T04:43:33;3.50;99.90
8684;DHT22;4379;59.744;18.206;2024-02-23T04:46:00;3.50;99.90
8684;DHT22;4379;59.744;18.206;2024-02-23T04:48:27;3.50;99.90
8684;DHT22;4379;59.744;18.206;2024-02-23T04:50:54;3.40;99.90
8684;DHT22;4379;59.744;18.206;2024-02-23T04:53:21;3.50;99.90
8684;DHT22;4379;59.744;18.206;2024-02-23T04:55:48;3.50;99.90
8684;DHT22;4379;59.744;18.206;2024-02-23T04:58:15;3.50;99.90
8684;DHT22;4379;59.744;18.206;2024-02-23T05:00:45;3.50;99.90
8684;DHT22;4379;59.744;18.206;2024-02-23T05:03:12;3.60;99.90
8684;DHT22;4379;59.744;18.206;2024-02-23T05:05:39;3.60;99.90
8684;DHT22;4379;59.744;18.206;2024-02-23T05:08:07;3.60;99.90
8684;DHT22;4379;59.744;18.206;2024-02-23T05:10:34;3.70;99.90
8684;DHT22;4379;59.744;18.206;2024-02-23T05:13:01;3.60;99.90
8684;DHT22;4379;59.744;18.206;2024-02-23T05:15:28;3.60;99.90
8684;DHT22;4379;59.744;18.206;2024-02-23T05:17:55;3.70;99.90
8684;DHT22;4379;59.744;18.206;2024-02-23T05:20:22;3.70;99.90
8684;DHT22;4379;59.744;18.206;2024-02-23T05:22:49;3.60;99.90
8684;DHT22;4379;59.744;18.206;2024-02-23T05:25:17;3.70;99.90
8684;DHT22;4379;59.744;18.206;2024-02-23T05:27:44;3.70;99.90
8684;DHT22;4379;59.744;18.206;2024-02-23T05:30:11;3.80;99.90
8684;DHT22;4379;59.744;18.206;2024-02-23T05:32:39;3.80;99.90
8684;DHT22;4379;59.744;18.206;2024-02-23T05:35:06;3.80;99.90
8684;DHT22;4379;59.744;18.206;2024-02-23T05:37:34;3.80;99.90
8684;DHT22;4379;59.744;18.206;2024-02-23T05:40:01;3.80;99.90
8684;DHT22;4379;59.744;18.206;2024-02-23T05:42:33;3.70;99.90
8684;DHT22;4379;59.744;18.206;2024-02-23T05:45:06;3.80;99.90
8684;DHT22;4379;59.744;18.206;2024-02-23T05:47:37;3.80;99.90
8684;DHT22;4379;59.744;18.206;2024-02-23T05:50:05;3.70;99.90
8684;DHT22;4379;59.744;18.206;2024-02-23T05:52:33;3.70;99.90
8684;DHT22;4379;59.744;18.206;2024-02-23T05:55:00;3.80;99.90
8684;DHT22;4379;59.744;18.206;2024-02-23T05:57:28;3.80;99.90
8684;DHT22;4379;59.744;18.206;2024-02-23T05:59:55;3.80;99.90
8684;DHT22;4379;59.744;18.206;2024-02-23T06:02:23;3.80;99.90
8684;DHT22;4379;59.744;18.206;2024-02-23T06:04:50;3.80;99.90
8684;DHT22;4379;59.744;18.206;2024-02-23T06:07:17;3.80;99.90
8684;DHT22;4379;59.744;18.206;2024-02-23T06:09:44;3.80;99.90
8684;DHT22;4379;59.744;18.206;2024-02-23T06:12:11;3.80;99.90
8684;DHT22;4379;59.744;18.206;2024-02-23T06:14:38;3.80;99.90
8684;DHT22;4379;59.744;18.206;2024-02-23T06:17:06;3.80;99.90
8684;DHT22;4379;59.744;18.206;2024-02-23T06:19:35;3.80;99.90
8684;DHT22;4379;59.744;18.206;2024-02-23T06:22:02;3.70;99.90
8684;DHT22;4379;59.744;18.206;2024-02-23T06:24:29;3.80;99.90
8684;DHT22;4379;59.744;18.206;2024-02-23T06:26:56;3.70;99.90
8684;DHT22;4379;59.744;18.206;2024-02-23T06:29:24;3.80;99.90
8684;DHT22;4379;59.744;18.206;2024-02-23T06:31:51;3.80;99.90
8684;DHT22;4379;59.744;18.206;2024-02-23T06:34:18;3.80;99.90
8684;DHT22;4379;59.744;18.206;2024-02-23T06:36:46;3.90;99.90
8684;DHT22;4379;59.744;18.206;2024-02-23T06:39:13;3.90;99.90
8684;DHT22;4379;59.744;18.206;2024-02-23T06:41:40;3.90;99.90
8684;DHT22;4379;59.744;18.206;2024-02-23T06:44:07;3.90;99.90
8684;DHT22;4379;59.744;18.206;2024-02-23T06:46:34;3.90;99.90
8684;DHT22;4379;59.744;18.206;2024-02-23T06:49:02;3.90;99.90
8684;DHT22;4379;59.744;18.206;2024-02-23T06:51:29;3.90;99.90
8684;DHT22;4379;59.744;18.206;2024-02-23T06:53:56;3.90;99.90
8684;DHT22;4379;59.744;18.206;2024-02-23T06:56:23;4.00;99.90
8684;DHT22;4379;59.744;18.206;2024-02-23T06:58:50;4.00;99.90
8684;DHT22;4379;59.744;18.206;2024-02-23T07:01:20;4.00;99.90
8684;DHT22;4379;59.744;18.206;2024-02-23T07:03:47;4.00;99.90
8684;DHT22;4379;59.744;18.206;2024-02-23T07:06:17;4.00;99.90
8684;DHT22;4379;59.744;18.206;2024-02-23T07:08:45;4.10;99.90
8684;DHT22;4379;59.744;18.206;2024-02-23T07:11:12;4.10;99.90
8684;DHT22;4379;59.744;18.206;2024-02-23T07:13:43;4.10;99.90
8684;DHT22;4379;59.744;18.206;2024-02-23T07:16:10;4.10;99.90
8684;DHT22;4379;59.744;18.206;2024-02-23T07:18:37;4.10;99.90
8684;DHT22;4379;59.744;18.206;2024-02-23T07:21:04;4.10;99.90
8684;DHT22;4379;59.744;18.206;2024-02-23T07:23:31;4.10;99.90
8684;DHT22;4379;59.744;18.206;2024-02-23T07:25:58;4.10;99.90
8684;DHT22;4379;59.744;18.206;2024-02-23T07:28:25;4.00;99.90
8684;DHT22;4379;59.744;18.206;2024-02-23T07:30:55;4.00;99.90
8684;DHT22;4379;59.744;18.206;2024-02-23T07:33:22;4.10;99.90
8684;DHT22;4379;59.744;18.206;2024-02-23T07:35:50;4.10;99.90
8684;DHT22;4379;59.744;18.206;2024-02-23T07:38:17;4.10;99.90
8684;DHT22;4379;59.744;18.206;2024-02-23T07:40:47;4.10;99.90
8684;DHT22;4379;59.744;18.206;2024-02-23T07:43:14;4.10;99.90
8684;DHT22;4379;59.744;18.206;2024-02-23T07:45:41;4.10;99.90
8684;DHT22;4379;59.744;18.206;2024-02-23T07:48:09;4.10;99.90
8684;DHT22;4379;59.744;18.206;2024-02-23T07:50:36;4.20;99.90
8684;DHT22;4379;59.744;18.206;2024-02-23T07:53:04;4.20;99.90
8684;DHT22;4379;59.744;18.206;2024-02-23T07:55:31;4.20;99.90
8684;DHT22;4379;59.744;18.206;2024-02-23T07:57:58;4.20;99.90
8684;DHT22;4379;59.744;18.206;2024-02-23T08:00:28;4.20;99.90
8684;DHT22;4379;59.744;18.206;2024-02-23T08:02:56;4.20;99.90
8684;DHT22;4379;59.744;18.206;2024-02-23T08:05:27;4.20;99.90
8684;DHT22;4379;59.744;18.206;2024-02-23T08:07:54;4.20;99.90
8684;DHT22;4379;59.744;18.206;2024-02-23T08:10:21;4.20;99.90
8684;DHT22;4379;59.744;18.206;2024-02-23T08:12:48;4.20;99.90
8684;DHT22;4379;59.744;18.206;2024-02-23T08:15:17;4.10;99.90
8684;DHT22;4379;59.744;18.206;2024-02-23T08:17:44;4.10;99.90
8684;DHT22;4379;59.744;18.206;2024-02-23T08:20:11;4.20;99.90
8684;DHT22;4379;59.744;18.206;2024-02-23T08:22:38;4.20;99.90
8684;DHT22;4379;59.744;18.206;2024-02-23T08:25:06;4.20;99.90
8684;DHT22;4379;59.744;18.206;2024-02-23T08:27:33;4.20;99.90
8684;DHT22;4379;59.744;18.206;2024-02-23T08:30:00;4.20;99.90
8684;DHT22;4379;59.744;18.206;2024-02-23T08:32:27;4.20;99.90
8684;DHT22;4379;59.744;18.206;2024-02-23T08:34:55;4.20;99.90
8684;DHT22;4379;59.744;18.206;2024-02-23T08:37:26;4.20;99.90
8684;DHT22;4379;59.744;18.206;2024-02-23T08:39:53;4.20;99.90
8684;DHT22;4379;59.744;18.206;2024-02-23T08:42:21;4.20;99.90
8684;DHT22;4379;59.744;18.206;2024-02-23T08:44:48;4.20;99.90
8684;DHT22;4379;59.744;18.206;2024-02-23T08:47:15;4.20;99.90
8684;DHT22;4379;59.744;18.206;2024-02-23T08:49:42;4.20;99.90
8684;DHT22;4379;59.744;18.206;2024-02-23T08:52:09;4.20;99.90
8684;DHT22;4379;59.744;18.206;2024-02-23T08:54:36;4.30;99.90
8684;DHT22;4379;59.744;18.206;2024-02-23T08:57:04;4.20;99.90
8684;DHT22;4379;59.744;18.206;2024-02-23T08:59:31;4.30;99.90
8684;DHT22;4379;59.744;18.206;2024-02-23T09:01:59;4.40;99.90
8684;DHT22;4379;59.744;18.206;2024-02-23T09:04:26;4.30;99.90
8684;DHT22;4379;59.744;18.206;2024-02-23T09:06:53;4.30;99.90
8684;DHT22;4379;59.744;18.206;2024-02-23T09:09:20;4.40;99.90
8684;DHT22;4379;59.744;18.206;2024-02-23T09:11:48;4.40;99.90
8684;DHT22;4379;59.744;18.206;2024-02-23T09:14:16;4.40;99.90
8684;DHT22;4379;59.744;18.206;2024-02-23T09:16:43;4.30;99.90
8684;DHT22;4379;59.744;18.206;2024-02-23T09:19:11;4.30;99.90
8684;DHT22;4379;59.744;18.206;2024-02-23T09:21:39;4.40;99.90
8684;DHT22;4379;59.744;18.206;2024-02-23T09:24:06;4.40;99.90
8684;DHT22;4379;59.744;18.206;2024-02-23T09:26:33;4.50;99.90
8684;DHT22;4379;59.744;18.206;2024-02-23T09:29:00;4.50;99.90
8684;DHT22;4379;59.744;18.206;2024-02-23T09:31:27;4.50;99.90
8684;DHT22;4379;59.744;18.206;2024-02-23T09:33:55;4.50;99.90
8684;DHT22;4379;59.744;18.206;2024-02-23T09:36:22;4.50;99.90
8684;DHT22;4379;59.744;18.206;2024-02-23T09:38:50;4.60;99.90
8684;DHT22;4379;59.744;18.206;2024-02-23T09:41:22;4.60;99.90
8684;DHT22;4379;59.744;18.206;2024-02-23T09:43:50;4.60;99.90
8684;DHT22;4379;59.744;18.206;2024-02-23T09:46:18;4.60;99.90
8684;DHT22;4379;59.744;18.206;2024-02-23T09:48:47;4.50;99.90
8684;DHT22;4379;59.744;18.206;2024-02-23T09:51:17;4.60;99.90
8684;DHT22;4379;59.744;18.206;2024-02-23T09:53:44;4.70;99.90
8684;DHT22;4379;59.744;18.206;2024-02-23T09:56:12;4.70;99.90
8684;DHT22;4379;59.744;18.206;2024-02-23T09:58:44;4.60;99.90
8684;DHT22;4379;59.744;18.206;2024-02-23T10:01:19;4.70;99.90
8684;DHT22;4379;59.744;18.206;2024-02-23T10:03:47;4.80;99.90
8684;DHT22;4379;59.744;18.206;2024-02-23T10:06:15;4.80;99.90
8684;DHT22;4379;59.744;18.206;2024-02-23T10:08:42;4.80;99.90
8684;DHT22;4379;59.744;18.206;2024-02-23T10:11:09;4.80;99.90
8684;DHT22;4379;59.744;18.206;2024-02-23T10:13:36;4.70;99.90
8684;DHT22;4379;59.744;18.206;2024-02-23T10:16:03;4.80;99.90
8684;DHT22;4379;59.744;18.206;2024-02-23T10:18:41;4.70;99.90
8684;DHT22;4379;59.744;18.206;2024-02-23T10:21:08;4.70;99.90
8684;DHT22;4379;59.744;18.206;2024-02-23T10:23:36;4.70;99.90
8684;DHT22;4379;59.744;18.206;2024-02-23T10:26:08;4.90;99.90
8684;DHT22;4379;59.744;18.206;2024-02-23T10:28:37;4.90;99.90
8684;DHT22;4379;59.744;18.206;2024-02-23T10:31:14;5.00;99.90
8684;DHT22;4379;59.744;18.206;2024-02-23T10:33:43;5.10;99.90
8684;DHT22;4379;59.744;18.206;2024-02-23T10:36:12;5.20;99.90
8684;DHT22;4379;59.744;18.206;2024-02-23T10:38:45;5.20;99.90
8684;DHT22;4379;59.744;18.206;2024-02-23T10:41:14;5.20;99.90
8684;DHT22;4379;59.744;18.206;2024-02-23T10:43:44;5.40;99.90
8684;DHT22;4379;59.744;18.206;2024-02-23T10:46:12;5.50;99.90
8684;DHT22;4379;59.744;18.206;2024-02-23T10:48:43;5.60;99.90
8684;DHT22;4379;59.744;18.206;2024-02-23T10:51:14;5.60;99.90
8684;DHT22;4379;59.744;18.206;2024-02-23T10:53:48;5.70;99.90
8684;DHT22;4379;59.744;18.206;2024-02-23T10:56:16;6.00;99.90
8684;DHT22;4379;59.744;18.206;2024-02-23T10:58:43;6.00;99.90
8684;DHT22;4379;59.744;18.206;2024-02-23T11:01:10;6.00;99.90
8684;DHT22;4379;59.744;18.206;2024-02-23T11:03:40;6.20;99.90
8684;DHT22;4379;59.744;18.206;2024-02-23T11:06:08;6.10;99.90
8684;DHT22;4379;59.744;18.206;2024-02-23T11:08:36;6.10;99.90
8684;DHT22;4379;59.744;18.206;2024-02-23T11:11:10;6.10;99.90
8684;DHT22;4379;59.744;18.206;2024-02-23T11:13:39;6.20;99.90
8684;DHT22;4379;59.744;18.206;2024-02-23T11:16:08;6.30;99.90
8684;DHT22;4379;59.744;18.206;2024-02-23T11:18:40;6.20;99.90
8684;DHT22;4379;59.744;18.206;2024-02-23T11:21:09;6.10;99.90
8684;DHT22;4379;59.744;18.206;2024-02-23T11:23:49;6.30;99.90
8684;DHT22;4379;59.744;18.206;2024-02-23T11:26:19;6.50;99.90
8684;DHT22;4379;59.744;18.206;2024-02-23T11:28:51;6.50;99.90
8684;DHT22;4379;59.744;18.206;2024-02-23T11:31:22;6.60;99.90
8684;DHT22;4379;59.744;18.206;2024-02-23T11:33:55;6.70;99.90
8684;DHT22;4379;59.744;18.206;2024-02-23T11:36:29;6.60;99.90
8684;DHT22;4379;59.744;18.206;2024-02-23T11:38:58;6.60;99.90
8684;DHT22;4379;59.744;18.206;2024-02-23T11:41:27;6.70;99.90
8684;DHT22;4379;59.744;18.206;2024-02-23T11:43:55;6.70;99.90
8684;DHT22;4379;59.744;18.206;2024-02-23T11:46:23;6.70;99.90
8684;DHT22;4379;59.744;18.206;2024-02-23T11:48:50;6.50;99.90
8684;DHT22;4379;59.744;18.206;2024-02-23T11:51:22;6.50;99.90
8684;DHT22;4379;59.744;18.206;2024-02-23T11:53:50;6.50;99.90
8684;DHT22;4379;59.744;18.206;2024-02-23T11:56:19;6.50;99.90
8684;DHT22;4379;59.744;18.206;2024-02-23T11:58:46;6.60;99.90
8684;DHT22;4379;59.744;18.206;2024-02-23T12:01:13;6.60;99.90
8684;DHT22;4379;59.744;18.206;2024-02-23T12:03:41;6.70;99.90
8684;DHT22;4379;59.744;18.206;2024-02-23T12:06:10;6.80;99.90
8684;DHT22;4379;59.744;18.206;2024-02-23T12:08:37;6.60;99.90
8684;DHT22;4379;59.744;18.206;2024-02-23T12:11:06;6.70;99.90
8684;DHT22;4379;59.744;18.206;2024-02-23T12:13:36;6.90;99.90
8684;DHT22;4379;59.744;18.206;2024-02-23T12:16:03;6.80;99.90
8684;DHT22;4379;59.744;18.206;2024-02-23T12:18:34;6.90;99.90
8684;DHT22;4379;59.744;18.206;2024-02-23T12:21:03;6.90;99.90
8684;DHT22;4379;59.744;18.206;2024-02-23T12:23:45;6.80;99.90
8684;DHT22;4379;59.744;18.206;2024-02-23T12:26:14;6.80;99.90
8684;DHT22;4379;59.744;18.206;2024-02-23T12:28:41;6.70;99.90
8684;DHT22;4379;59.744;18.206;2024-02-23T12:31:09;6.70;99.90
8684;DHT22;4379;59.744;18.206;2024-02-23T12:33:37;6.70;99.90
8684;DHT22;4379;59.744;18.206;2024-02-23T12:36:08;6.60;99.90
8684;DHT22;4379;59.744;18.206;2024-02-23T12:38:37;6.60;99.90
8684;DHT22;4379;59.744;18.206;2024-02-23T12:41:04;6.50;99.90
8684;DHT22;4379;59.744;18.206;2024-02-23T12:43:32;6.60;99.90
8684;DHT22;4379;59.744;18.206;2024-02-23T12:45:59;6.60;99.90
8684;DHT22;4379;59.744;18.206;2024-02-23T12:48:28;6.70;99.90
8684;DHT22;4379;59.744;18.206;2024-02-23T12:50:55;6.60;99.90
8684;DHT22;4379;59.744;18.206;2024-02-23T12:53:36;6.60;99.90
8684;DHT22;4379;59.744;18.206;2024-02-23T12:56:12;6.70;99.90
8684;DHT22;4379;59.744;18.206;2024-02-23T12:58:44;6.80;99.90
8684;DHT22;4379;59.744;18.206;2024-02-23T13:01:11;6.70;99.90
8684;DHT22;4379;59.744;18.206;2024-02-23T13:03:39;6.60;99.90
8684;DHT22;4379;59.744;18.206;2024-02-23T13:06:09;6.60;99.90
8684;DHT22;4379;59.744;18.206;2024-02-23T13:08:36;6.60;99.90
8684;DHT22;4379;59.744;18.206;2024-02-23T13:11:06;6.50;99.90
8684;DHT22;4379;59.744;18.206;2024-02-23T13:13:33;6.50;99.90
8684;DHT22;4379;59.744;18.206;2024-02-23T13:16:01;6.60;99.90
8684;DHT22;4379;59.744;18.206;2024-02-23T13:18:28;6.50;99.90
8684;DHT22;4379;59.744;18.206;2024-02-23T13:20:56;6.60;99.90
8684;DHT22;4379;59.744;18.206;2024-02-23T13:23:23;6.50;99.90
8684;DHT22;4379;59.744;18.206;2024-02-23T13:25:51;6.60;99.90
8684;DHT22;4379;59.744;18.206;2024-02-23T13:28:18;6.50;99.90
8684;DHT22;4379;59.744;18.206;2024-02-23T13:30:45;6.40;99.90
8684;DHT22;4379;59.744;18.206;2024-02-23T13:33:12;6.30;99.90
8684;DHT22;4379;59.744;18.206;2024-02-23T13:35:40;6.20;99.90
8684;DHT22;4379;59.744;18.206;2024-02-23T13:38:07;6.10;99.90
8684;DHT22;4379;59.744;18.206;2024-02-23T13:40:36;6.10;99.90
8684;DHT22;4379;59.744;18.206;2024-02-23T13:43:03;6.10;99.90
8684;DHT22;4379;59.744;18.206;2024-02-23T13:45:30;6.20;99.90
8684;DHT22;4379;59.744;18.206;2024-02-23T13:48:02;6.20;99.90
8684;DHT22;4379;59.744;18.206;2024-02-23T13:50:30;6.20;99.90
8684;DHT22;4379;59.744;18.206;2024-02-23T13:52:58;6.20;99.90
8684;DHT22;4379;59.744;18.206;2024-02-23T13:55:25;6.20;99.90
8684;DHT22;4379;59.744;18.206;2024-02-23T13:57:52;6.10;99.90
8684;DHT22;4379;59.744;18.206;2024-02-23T14:00:20;6.00;99.90
8684;DHT22;4379;59.744;18.206;2024-02-23T14:02:48;6.10;99.90
8684;DHT22;4379;59.744;18.206;2024-02-23T14:05:15;6.20;99.90
8684;DHT22;4379;59.744;18.206;2024-02-23T14:07:45;6.20;99.90
8684;DHT22;4379;59.744;18.206;2024-02-23T14:10:12;6.20;99.90
8684;DHT22;4379;59.744;18.206;2024-02-23T14:12:41;6.20;99.90
8684;DHT22;4379;59.744;18.206;2024-02-23T14:15:08;6.20;99.90
8684;DHT22;4379;59.744;18.206;2024-02-23T14:17:36;6.10;99.90
8684;DHT22;4379;59.744;18.206;2024-02-23T14:20:03;6.20;99.90
8684;DHT22;4379;59.744;18.206;2024-02-23T14:22:31;6.10;99.90
8684;DHT22;4379;59.744;18.206;2024-02-23T14:24:58;6.20;99.90
8684;DHT22;4379;59.744;18.206;2024-02-23T14:27:26;6.20;99.90
8684;DHT22;4379;59.744;18.206;2024-02-23T14:29:58;6.30;99.90
8684;DHT22;4379;59.744;18.206;2024-02-23T14:32:25;6.30;99.90
8684;DHT22;4379;59.744;18.206;2024-02-23T14:34:52;6.40;99.90
8684;DHT22;4379;59.744;18.206;2024-02-23T14:37:19;6.30;99.90
8684;DHT22;4379;59.744;18.206;2024-02-23T14:39:46;6.30;99.90
8684;DHT22;4379;59.744;18.206;2024-02-23T14:42:14;6.20;99.90
8684;DHT22;4379;59.744;18.206;2024-02-23T14:44:41;6.20;99.90
8684;DHT22;4379;59.744;18.206;2024-02-23T14:47:08;6.20;99.90
8684;DHT22;4379;59.744;18.206;2024-02-23T14:49:35;6.20;99.90
8684;DHT22;4379;59.744;18.206;2024-02-23T14:52:03;6.10;99.90
8684;DHT22;4379;59.744;18.206;2024-02-23T14:54:31;6.00;99.90
8684;DHT22;4379;59.744;18.206;2024-02-23T14:56:59;6.00;99.90
8684;DHT22;4379;59.744;18.206;2024-02-23T14:59:27;6.00;99.90
8684;DHT22;4379;59.744;18.206;2024-02-23T15:01:54;5.90;99.90
8684;DHT22;4379;59.744;18.206;2024-02-23T15:04:21;5.80;99.90
8684;DHT22;4379;59.744;18.206;2024-02-23T15:06:48;5.80;99.90
8684;DHT22;4379;59.744;18.206;2024-02-23T15:09:15;5.60;99.90
8684;DHT22;4379;59.744;18.206;2024-02-23T15:11:46;5.60;99.90
8684;DHT22;4379;59.744;18.206;2024-02-23T15:14:13;5.50;99.90
8684;DHT22;4379;59.744;18.206;2024-02-23T15:16:42;5.40;99.90
8684;DHT22;4379;59.744;18.206;2024-02-23T15:19:09;5.40;99.90
8684;DHT22;4379;59.744;18.206;2024-02-23T15:21:37;5.50;99.90
8684;DHT22;4379;59.744;18.206;2024-02-23T15:24:07;5.50;99.90
8684;DHT22;4379;59.744;18.206;2024-02-23T15:26:34;5.40;99.90
8684;DHT22;4379;59.744;18.206;2024-02-23T15:29:01;5.40;99.90
8684;DHT22;4379;59.744;18.206;2024-02-23T15:31:30;5.30;99.90
8684;DHT22;4379;59.744;18.206;2024-02-23T15:33:57;5.30;99.90
8684;DHT22;4379;59.744;18.206;2024-02-23T15:36:27;5.20;99.90
8684;DHT22;4379;59.744;18.206;2024-02-23T15:38:54;5.20;99.90
8684;DHT22;4379;59.744;18.206;2024-02-23T15:41:29;5.20;99.90
8684;DHT22;4379;59.744;18.206;2024-02-23T15:43:57;5.10;99.90
8684;DHT22;4379;59.744;18.206;2024-02-23T15:46:24;5.00;99.90
8684;DHT22;4379;59.744;18.206;2024-02-23T15:48:52;4.90;99.90
8684;DHT22;4379;59.744;18.206;2024-02-23T15:51:20;4.80;99.90
8684;DHT22;4379;59.744;18.206;2024-02-23T15:54:07;4.70;99.90
8684;DHT22;4379;59.744;18.206;2024-02-23T15:56:34;4.70;99.90
8684;DHT22;4379;59.744;18.206;2024-02-23T15:59:02;4.70;99.90
8684;DHT22;4379;59.744;18.206;2024-02-23T16:01:35;4.70;99.90
8684;DHT22;4379;59.744;18.206;2024-02-23T16:04:04;4.70;99.90
8684;DHT22;4379;59.744;18.206;2024-02-23T16:06:31;4.70;99.90
8684;DHT22;4379;59.744;18.206;2024-02-23T16:09:01;4.50;99.90